sensor_id;sensor_type;location;lat;lon;timestamp;P1;durP1;ratioP1;P2;durP2;ratioP2
78561;SDS011;68963;52.138;5.446;2023-07-13T00:00:47;8.75;;;1.70;;
78561;SDS011;68963;52.138;5.446;2023-07-13T00:03:14;8.07;;;1.67;;
78561;SDS011;68963;52.138;5.446;2023-07-13T00:05:41;8.40;;;1.90;;
78561;SDS011;68963;52.138;5.446;2023-07-13T00:08:08;8.40;;;1.65;;
78561;SDS011;68963;52.138;5.446;2023-07-13T00:10:38;8.48;;;1.90;;
78561;SDS011;68963;52.138;5.446;2023-07-13T00:13:07;10.32;;;1.52;;
78561;SDS011;68963;52.138;5.446;2023-07-13T00:15:34;13.27;;;1.95;;
78561;SDS011;68963;52.138;5.446;2023-07-13T00:18:02;7.25;;;1.80;;
78561;SDS011;68963;52.138;5.446;2023-07-13T00:20:29;9.93;;;1.85;;
78561;SDS011;68963;52.138;5.446;2023-07-13T00:22:55;10.90;;;2.20;;
78561;SDS011;68963;52.138;5.446;2023-07-13T00:25:23;9.90;;;2.00;;
78561;SDS011;68963;52.138;5.446;2023-07-13T00:27:56;6.32;;;1.85;;
78561;SDS011;68963;52.138;5.446;2023-07-13T00:30:22;9.25;;;1.92;;
78561;SDS011;68963;52.138;5.446;2023-07-13T00:32:50;15.88;;;2.42;;
78561;SDS011;68963;52.138;5.446;2023-07-13T00:35:30;8.32;;;1.80;;
78561;SDS011;68963;52.138;5.446;2023-07-13T00:37:57;8.07;;;1.80;;
78561;SDS011;68963;52.138;5.446;2023-07-13T00:40:24;8.07;;;1.60;;
78561;SDS011;68963;52.138;5.446;2023-07-13T00:42:52;5.35;;;1.80;;
78561;SDS011;68963;52.138;5.446;2023-07-13T00:47:45;6.68;;;1.80;;
78561;SDS011;68963;52.138;5.446;2023-07-13T00:50:14;11.20;;;1.65;;
78561;SDS011;68963;52.138;5.446;2023-07-13T00:52:43;7.78;;;1.30;;
78561;SDS011;68963;52.138;5.446;2023-07-13T00:55:12;9.85;;;1.67;;
78561;SDS011;68963;52.138;5.446;2023-07-13T00:57:40;11.90;;;2.30;;
78561;SDS011;68963;52.138;5.446;2023-07-13T01:00:07;8.68;;;1.63;;
78561;SDS011;68963;52.138;5.446;2023-07-13T01:02:37;9.32;;;1.67;;
78561;SDS011;68963;52.138;5.446;2023-07-13T01:05:09;10.02;;;1.77;;
78561;SDS011;68963;52.138;5.446;2023-07-13T01:07:36;8.05;;;1.63;;
78561;SDS011;68963;52.138;5.446;2023-07-13T01:10:04;12.52;;;2.00;;
78561;SDS011;68963;52.138;5.446;2023-07-13T01:12:31;8.13;;;1.55;;
78561;SDS011;68963;52.138;5.446;2023-07-13T01:14:58;7.07;;;1.73;;
78561;SDS011;68963;52.138;5.446;2023-07-13T01:17:27;8.15;;;1.70;;
78561;SDS011;68963;52.138;5.446;2023-07-13T01:19:55;5.97;;;1.75;;
78561;SDS011;68963;52.138;5.446;2023-07-13T01:22:22;7.10;;;2.00;;
78561;SDS011;68963;52.138;5.446;2023-07-13T01:24:53;8.10;;;1.80;;
78561;SDS011;68963;52.138;5.446;2023-07-13T01:27:21;7.53;;;1.83;;
78561;SDS011;68963;52.138;5.446;2023-07-13T01:29:52;7.28;;;1.70;;
78561;SDS011;68963;52.138;5.446;2023-07-13T01:32:20;8.70;;;1.83;;
78561;SDS011;68963;52.138;5.446;2023-07-13T01:34:51;10.40;;;1.83;;
78561;SDS011;68963;52.138;5.446;2023-07-13T01:37:21;9.93;;;2.00;;
78561;SDS011;68963;52.138;5.446;2023-07-13T01:39:52;8.25;;;1.90;;
78561;SDS011;68963;52.138;5.446;2023-07-13T01:42:19;8.45;;;1.65;;
78561;SDS011;68963;52.138;5.446;2023-07-13T01:44:45;8.10;;;1.80;;
78561;SDS011;68963;52.138;5.446;2023-07-13T01:47:12;6.93;;;2.30;;
78561;SDS011;68963;52.138;5.446;2023-07-13T01:49:39;7.70;;;1.90;;
78561;SDS011;68963;52.138;5.446;2023-07-13T01:52:05;7.65;;;2.00;;
78561;SDS011;68963;52.138;5.446;2023-07-13T01:54:32;7.65;;;1.95;;
78561;SDS011;68963;52.138;5.446;2023-07-13T01:57:00;7.53;;;1.60;;
78561;SDS011;68963;52.138;5.446;2023-07-13T01:59:27;9.80;;;1.92;;
78561;SDS011;68963;52.138;5.446;2023-07-13T02:01:53;6.13;;;1.90;;
78561;SDS011;68963;52.138;5.446;2023-07-13T02:04:20;7.47;;;1.80;;
78561;SDS011;68963;52.138;5.446;2023-07-13T02:06:47;8.70;;;2.00;;
78561;SDS011;68963;52.138;5.446;2023-07-13T02:09:14;5.93;;;1.67;;
78561;SDS011;68963;52.138;5.446;2023-07-13T02:11:40;8.38;;;1.90;;
78561;SDS011;68963;52.138;5.446;2023-07-13T02:14:07;7.85;;;2.10;;
78561;SDS011;68963;52.138;5.446;2023-07-13T02:16:34;5.35;;;1.60;;
78561;SDS011;68963;52.138;5.446;2023-07-13T02:19:00;12.75;;;1.98;;
78561;SDS011;68963;52.138;5.446;2023-07-13T02:21:27;6.75;;;1.80;;
78561;SDS011;68963;52.138;5.446;2023-07-13T02:23:54;10.20;;;1.90;;
78561;SDS011;68963;52.138;5.446;2023-07-13T02:26:21;6.95;;;1.83;;
78561;SDS011;68963;52.138;5.446;2023-07-13T02:28:47;9.15;;;2.00;;
78561;SDS011;68963;52.138;5.446;2023-07-13T02:31:14;8.38;;;1.90;;
78561;SDS011;68963;52.138;5.446;2023-07-13T02:33:42;8.18;;;2.08;;
78561;SDS011;68963;52.138;5.446;2023-07-13T02:36:09;7.95;;;2.13;;
78561;SDS011;68963;52.138;5.446;2023-07-13T02:38:37;8.90;;;2.30;;
78561;SDS011;68963;52.138;5.446;2023-07-13T02:41:04;11.65;;;2.17;;
78561;SDS011;68963;52.138;5.446;2023-07-13T02:43:33;8.85;;;1.77;;
78561;SDS011;68963;52.138;5.446;2023-07-13T02:46:15;9.05;;;2.15;;
78561;SDS011;68963;52.138;5.446;2023-07-13T02:48:42;8.35;;;2.25;;
78561;SDS011;68963;52.138;5.446;2023-07-13T02:51:09;8.68;;;3.10;;
78561;SDS011;68963;52.138;5.446;2023-07-13T02:53:35;7.43;;;2.33;;
78561;SDS011;68963;52.138;5.446;2023-07-13T02:56:03;7.38;;;2.20;;
78561;SDS011;68963;52.138;5.446;2023-07-13T02:58:30;10.77;;;2.30;;
78561;SDS011;68963;52.138;5.446;2023-07-13T03:00:57;8.73;;;2.55;;
78561;SDS011;68963;52.138;5.446;2023-07-13T03:03:24;8.85;;;2.60;;
78561;SDS011;68963;52.138;5.446;2023-07-13T03:05:57;8.57;;;2.45;;
78561;SDS011;68963;52.138;5.446;2023-07-13T03:08:25;8.73;;;2.88;;
78561;SDS011;68963;52.138;5.446;2023-07-13T03:10:59;8.10;;;2.40;;
78561;SDS011;68963;52.138;5.446;2023-07-13T03:13:29;10.15;;;3.05;;
78561;SDS011;68963;52.138;5.446;2023-07-13T03:15:56;11.07;;;2.60;;
78561;SDS011;68963;52.138;5.446;2023-07-13T03:18:23;8.43;;;2.70;;
78561;SDS011;68963;52.138;5.446;2023-07-13T03:20:52;10.02;;;2.80;;
78561;SDS011;68963;52.138;5.446;2023-07-13T03:23:19;10.23;;;2.65;;
78561;SDS011;68963;52.138;5.446;2023-07-13T03:25:47;9.10;;;2.65;;
78561;SDS011;68963;52.138;5.446;2023-07-13T03:28:14;9.30;;;2.75;;
78561;SDS011;68963;52.138;5.446;2023-07-13T03:30:41;10.73;;;3.17;;
78561;SDS011;68963;52.138;5.446;2023-07-13T03:33:08;8.52;;;2.70;;
78561;SDS011;68963;52.138;5.446;2023-07-13T03:35:35;10.13;;;2.70;;
78561;SDS011;68963;52.138;5.446;2023-07-13T03:38:06;9.52;;;2.85;;
78561;SDS011;68963;52.138;5.446;2023-07-13T03:40:33;8.75;;;3.00;;
78561;SDS011;68963;52.138;5.446;2023-07-13T03:43:00;9.13;;;2.90;;
78561;SDS011;68963;52.138;5.446;2023-07-13T03:45:28;9.18;;;2.88;;
78561;SDS011;68963;52.138;5.446;2023-07-13T03:47:55;10.57;;;2.75;;
78561;SDS011;68963;52.138;5.446;2023-07-13T03:50:22;10.88;;;2.90;;
78561;SDS011;68963;52.138;5.446;2023-07-13T03:52:48;10.23;;;3.00;;
78561;SDS011;68963;52.138;5.446;2023-07-13T03:55:15;12.75;;;3.17;;
78561;SDS011;68963;52.138;5.446;2023-07-13T03:57:42;8.30;;;3.03;;
78561;SDS011;68963;52.138;5.446;2023-07-13T04:00:08;10.32;;;2.65;;
78561;SDS011;68963;52.138;5.446;2023-07-13T04:02:36;9.52;;;2.90;;
78561;SDS011;68963;52.138;5.446;2023-07-13T04:05:03;11.50;;;2.80;;
78561;SDS011;68963;52.138;5.446;2023-07-13T04:07:30;11.57;;;2.58;;
78561;SDS011;68963;52.138;5.446;2023-07-13T04:09:57;8.82;;;3.10;;
78561;SDS011;68963;52.138;5.446;2023-07-13T04:12:24;10.05;;;2.67;;
78561;SDS011;68963;52.138;5.446;2023-07-13T04:14:50;12.35;;;3.17;;
78561;SDS011;68963;52.138;5.446;2023-07-13T04:17:17;7.28;;;2.78;;
78561;SDS011;68963;52.138;5.446;2023-07-13T04:19:43;12.73;;;3.25;;
78561;SDS011;68963;52.138;5.446;2023-07-13T04:22:10;9.73;;;3.08;;
78561;SDS011;68963;52.138;5.446;2023-07-13T04:24:37;10.77;;;2.95;;
78561;SDS011;68963;52.138;5.446;2023-07-13T04:27:04;9.85;;;3.00;;
78561;SDS011;68963;52.138;5.446;2023-07-13T04:29:31;9.40;;;2.65;;
78561;SDS011;68963;52.138;5.446;2023-07-13T04:31:57;11.88;;;3.22;;
78561;SDS011;68963;52.138;5.446;2023-07-13T04:34:24;11.27;;;3.30;;
78561;SDS011;68963;52.138;5.446;2023-07-13T04:36:51;12.77;;;3.17;;
78561;SDS011;68963;52.138;5.446;2023-07-13T04:39:18;11.55;;;3.40;;
78561;SDS011;68963;52.138;5.446;2023-07-13T04:41:45;14.00;;;3.55;;
78561;SDS011;68963;52.138;5.446;2023-07-13T04:44:11;10.50;;;3.75;;
78561;SDS011;68963;52.138;5.446;2023-07-13T04:46:38;12.38;;;3.78;;
78561;SDS011;68963;52.138;5.446;2023-07-13T04:49:05;11.88;;;3.50;;
78561;SDS011;68963;52.138;5.446;2023-07-13T04:51:31;13.60;;;3.60;;
78561;SDS011;68963;52.138;5.446;2023-07-13T04:53:58;10.85;;;3.20;;
78561;SDS011;68963;52.138;5.446;2023-07-13T04:56:26;10.77;;;3.47;;
78561;SDS011;68963;52.138;5.446;2023-07-13T04:58:53;13.48;;;3.55;;
78561;SDS011;68963;52.138;5.446;2023-07-13T05:01:20;11.63;;;3.22;;
78561;SDS011;68963;52.138;5.446;2023-07-13T05:03:46;13.63;;;3.53;;
78561;SDS011;68963;52.138;5.446;2023-07-13T05:06:13;13.88;;;3.30;;
78561;SDS011;68963;52.138;5.446;2023-07-13T05:08:40;11.07;;;3.45;;
78561;SDS011;68963;52.138;5.446;2023-07-13T05:11:06;12.55;;;3.70;;
78561;SDS011;68963;52.138;5.446;2023-07-13T05:13:34;12.32;;;3.58;;
78561;SDS011;68963;52.138;5.446;2023-07-13T05:16:01;14.45;;;3.75;;
78561;SDS011;68963;52.138;5.446;2023-07-13T05:18:29;14.32;;;3.88;;
78561;SDS011;68963;52.138;5.446;2023-07-13T05:21:03;12.35;;;4.38;;
78561;SDS011;68963;52.138;5.446;2023-07-13T05:23:32;11.45;;;3.58;;
78561;SDS011;68963;52.138;5.446;2023-07-13T05:28:27;15.50;;;3.88;;
78561;SDS011;68963;52.138;5.446;2023-07-13T05:30:55;10.32;;;3.90;;
78561;SDS011;68963;52.138;5.446;2023-07-13T05:33:22;13.57;;;4.22;;
78561;SDS011;68963;52.138;5.446;2023-07-13T05:38:17;13.10;;;3.80;;
78561;SDS011;68963;52.138;5.446;2023-07-13T05:40:44;11.88;;;4.35;;
78561;SDS011;68963;52.138;5.446;2023-07-13T05:43:11;14.32;;;4.25;;
78561;SDS011;68963;52.138;5.446;2023-07-13T05:45:39;14.77;;;4.97;;
78561;SDS011;68963;52.138;5.446;2023-07-13T05:48:06;15.02;;;5.65;;
78561;SDS011;68963;52.138;5.446;2023-07-13T05:50:33;16.48;;;5.63;;
78561;SDS011;68963;52.138;5.446;2023-07-13T05:52:59;16.20;;;5.60;;
78561;SDS011;68963;52.138;5.446;2023-07-13T05:55:26;16.85;;;5.72;;
78561;SDS011;68963;52.138;5.446;2023-07-13T05:57:53;17.83;;;6.13;;
78561;SDS011;68963;52.138;5.446;2023-07-13T06:00:20;17.45;;;6.53;;
78561;SDS011;68963;52.138;5.446;2023-07-13T06:02:47;15.70;;;6.63;;
78561;SDS011;68963;52.138;5.446;2023-07-13T06:05:13;16.38;;;6.78;;
78561;SDS011;68963;52.138;5.446;2023-07-13T06:07:41;18.52;;;7.00;;
78561;SDS011;68963;52.138;5.446;2023-07-13T06:10:08;20.20;;;6.65;;
78561;SDS011;68963;52.138;5.446;2023-07-13T06:12:35;15.95;;;7.32;;
78561;SDS011;68963;52.138;5.446;2023-07-13T06:15:02;17.88;;;6.90;;
78561;SDS011;68963;52.138;5.446;2023-07-13T06:17:29;17.33;;;7.20;;
78561;SDS011;68963;52.138;5.446;2023-07-13T06:19:56;16.27;;;6.90;;
78561;SDS011;68963;52.138;5.446;2023-07-13T06:22:26;17.58;;;7.18;;
78561;SDS011;68963;52.138;5.446;2023-07-13T06:24:53;21.60;;;7.18;;
78561;SDS011;68963;52.138;5.446;2023-07-13T06:27:29;14.93;;;6.80;;
78561;SDS011;68963;52.138;5.446;2023-07-13T06:30:00;18.85;;;7.20;;
78561;SDS011;68963;52.138;5.446;2023-07-13T06:32:27;18.33;;;7.25;;
78561;SDS011;68963;52.138;5.446;2023-07-13T06:37:39;18.23;;;8.23;;
78561;SDS011;68963;52.138;5.446;2023-07-13T06:40:06;18.45;;;8.10;;
78561;SDS011;68963;52.138;5.446;2023-07-13T06:42:33;17.38;;;8.18;;
78561;SDS011;68963;52.138;5.446;2023-07-13T06:45:00;17.13;;;7.80;;
78561;SDS011;68963;52.138;5.446;2023-07-13T06:47:26;17.92;;;7.90;;
78561;SDS011;68963;52.138;5.446;2023-07-13T06:49:54;18.50;;;7.82;;
78561;SDS011;68963;52.138;5.446;2023-07-13T06:52:21;19.10;;;8.20;;
78561;SDS011;68963;52.138;5.446;2023-07-13T06:54:54;18.95;;;7.60;;
78561;SDS011;68963;52.138;5.446;2023-07-13T06:57:26;19.58;;;8.27;;
78561;SDS011;68963;52.138;5.446;2023-07-13T06:59:56;18.77;;;8.10;;
78561;SDS011;68963;52.138;5.446;2023-07-13T07:02:26;17.85;;;7.60;;
78561;SDS011;68963;52.138;5.446;2023-07-13T07:04:52;18.85;;;7.93;;
78561;SDS011;68963;52.138;5.446;2023-07-13T07:07:23;15.05;;;8.07;;
78561;SDS011;68963;52.138;5.446;2023-07-13T07:09:51;19.67;;;8.07;;
78561;SDS011;68963;52.138;5.446;2023-07-13T07:12:17;16.63;;;7.80;;
78561;SDS011;68963;52.138;5.446;2023-07-13T07:14:44;18.67;;;8.07;;
78561;SDS011;68963;52.138;5.446;2023-07-13T07:17:12;20.33;;;8.57;;
78561;SDS011;68963;52.138;5.446;2023-07-13T07:19:39;21.17;;;9.00;;
78561;SDS011;68963;52.138;5.446;2023-07-13T07:22:07;18.40;;;8.93;;
78561;SDS011;68963;52.138;5.446;2023-07-13T07:24:34;22.02;;;8.25;;
78561;SDS011;68963;52.138;5.446;2023-07-13T07:27:01;20.63;;;8.73;;
78561;SDS011;68963;52.138;5.446;2023-07-13T07:29:31;17.80;;;8.35;;
78561;SDS011;68963;52.138;5.446;2023-07-13T07:32:00;18.05;;;8.80;;
78561;SDS011;68963;52.138;5.446;2023-07-13T07:34:47;17.00;;;8.68;;
78561;SDS011;68963;52.138;5.446;2023-07-13T07:37:14;15.90;;;8.80;;
78561;SDS011;68963;52.138;5.446;2023-07-13T07:39:44;20.20;;;9.40;;
78561;SDS011;68963;52.138;5.446;2023-07-13T07:42:33;22.80;;;9.95;;
78561;SDS011;68963;52.138;5.446;2023-07-13T07:45:00;17.85;;;9.02;;
78561;SDS011;68963;52.138;5.446;2023-07-13T07:47:27;16.90;;;8.30;;
78561;SDS011;68963;52.138;5.446;2023-07-13T07:49:54;15.73;;;8.80;;
78561;SDS011;68963;52.138;5.446;2023-07-13T07:52:21;18.83;;;9.40;;
78561;SDS011;68963;52.138;5.446;2023-07-13T07:54:48;19.88;;;9.32;;
78561;SDS011;68963;52.138;5.446;2023-07-13T07:57:17;18.38;;;9.27;;
78561;SDS011;68963;52.138;5.446;2023-07-13T08:00:04;17.90;;;8.85;;
78561;SDS011;68963;52.138;5.446;2023-07-13T08:02:34;18.60;;;8.32;;
78561;SDS011;68963;52.138;5.446;2023-07-13T08:05:04;19.15;;;9.32;;
78561;SDS011;68963;52.138;5.446;2023-07-13T08:07:34;15.73;;;8.15;;
78561;SDS011;68963;52.138;5.446;2023-07-13T08:10:02;18.70;;;8.18;;
78561;SDS011;68963;52.138;5.446;2023-07-13T08:12:29;16.63;;;7.63;;
78561;SDS011;68963;52.138;5.446;2023-07-13T08:14:58;18.20;;;8.05;;
78561;SDS011;68963;52.138;5.446;2023-07-13T08:17:27;17.45;;;8.18;;
78561;SDS011;68963;52.138;5.446;2023-07-13T08:19:54;18.00;;;8.27;;
78561;SDS011;68963;52.138;5.446;2023-07-13T08:22:21;13.55;;;7.25;;
78561;SDS011;68963;52.138;5.446;2023-07-13T08:24:48;15.18;;;7.38;;
78561;SDS011;68963;52.138;5.446;2023-07-13T08:27:23;13.88;;;7.07;;
78561;SDS011;68963;52.138;5.446;2023-07-13T08:32:17;13.68;;;6.22;;
78561;SDS011;68963;52.138;5.446;2023-07-13T08:34:45;14.57;;;7.15;;
78561;SDS011;68963;52.138;5.446;2023-07-13T08:37:12;13.02;;;6.25;;
78561;SDS011;68963;52.138;5.446;2023-07-13T08:39:39;18.98;;;7.15;;
78561;SDS011;68963;52.138;5.446;2023-07-13T08:47:24;13.10;;;5.32;;
78561;SDS011;68963;52.138;5.446;2023-07-13T08:49:52;11.15;;;4.38;;
78561;SDS011;68963;52.138;5.446;2023-07-13T08:54:56;13.90;;;5.13;;
78561;SDS011;68963;52.138;5.446;2023-07-13T08:59:59;7.20;;;2.85;;
78561;SDS011;68963;52.138;5.446;2023-07-13T09:02:27;7.72;;;3.40;;
78561;SDS011;68963;52.138;5.446;2023-07-13T09:10:43;5.68;;;2.60;;
78561;SDS011;68963;52.138;5.446;2023-07-13T09:16:03;7.38;;;2.90;;
78561;SDS011;68963;52.138;5.446;2023-07-13T09:21:05;8.40;;;3.00;;
78561;SDS011;68963;52.138;5.446;2023-07-13T09:23:37;9.48;;;3.50;;
78561;SDS011;68963;52.138;5.446;2023-07-13T09:28:38;8.48;;;3.88;;
78561;SDS011;68963;52.138;5.446;2023-07-13T09:34:11;8.02;;;2.97;;
78561;SDS011;68963;52.138;5.446;2023-07-13T09:36:38;10.45;;;3.40;;
78561;SDS011;68963;52.138;5.446;2023-07-13T09:44:29;7.38;;;3.05;;
78561;SDS011;68963;52.138;5.446;2023-07-13T09:47:00;8.82;;;2.80;;
78561;SDS011;68963;52.138;5.446;2023-07-13T09:49:28;7.65;;;2.80;;
78561;SDS011;68963;52.138;5.446;2023-07-13T09:52:00;7.35;;;2.70;;
78561;SDS011;68963;52.138;5.446;2023-07-13T09:54:33;6.95;;;2.58;;
78561;SDS011;68963;52.138;5.446;2023-07-13T09:57:11;8.73;;;3.10;;
78561;SDS011;68963;52.138;5.446;2023-07-13T09:59:41;8.07;;;3.15;;
78561;SDS011;68963;52.138;5.446;2023-07-13T10:05:01;8.88;;;3.03;;
78561;SDS011;68963;52.138;5.446;2023-07-13T10:07:37;7.25;;;3.10;;
78561;SDS011;68963;52.138;5.446;2023-07-13T10:10:13;8.23;;;3.00;;
78561;SDS011;68963;52.138;5.446;2023-07-13T10:12:49;8.07;;;3.03;;
78561;SDS011;68963;52.138;5.446;2023-07-13T10:15:26;6.82;;;3.28;;
78561;SDS011;68963;52.138;5.446;2023-07-13T10:17:54;6.45;;;3.22;;
78561;SDS011;68963;52.138;5.446;2023-07-13T10:20:24;8.40;;;3.35;;
78561;SDS011;68963;52.138;5.446;2023-07-13T10:23:02;7.68;;;2.85;;
78561;SDS011;68963;52.138;5.446;2023-07-13T10:25:33;7.15;;;3.13;;
78561;SDS011;68963;52.138;5.446;2023-07-13T10:28:14;6.88;;;3.35;;
78561;SDS011;68963;52.138;5.446;2023-07-13T10:30:56;7.80;;;3.42;;
78561;SDS011;68963;52.138;5.446;2023-07-13T10:33:26;8.23;;;3.05;;
78561;SDS011;68963;52.138;5.446;2023-07-13T10:35:55;5.93;;;3.10;;
78561;SDS011;68963;52.138;5.446;2023-07-13T10:38:43;7.93;;;3.30;;
78561;SDS011;68963;52.138;5.446;2023-07-13T10:41:15;7.80;;;3.28;;
78561;SDS011;68963;52.138;5.446;2023-07-13T10:43:47;7.10;;;3.08;;
78561;SDS011;68963;52.138;5.446;2023-07-13T10:46:19;7.88;;;3.10;;
78561;SDS011;68963;52.138;5.446;2023-07-13T10:48:53;9.20;;;3.90;;
78561;SDS011;68963;52.138;5.446;2023-07-13T10:51:24;9.35;;;3.60;;
78561;SDS011;68963;52.138;5.446;2023-07-13T10:56:43;8.25;;;3.42;;
78561;SDS011;68963;52.138;5.446;2023-07-13T10:59:23;7.55;;;3.30;;
78561;SDS011;68963;52.138;5.446;2023-07-13T11:01:58;8.43;;;3.22;;
78561;SDS011;68963;52.138;5.446;2023-07-13T11:04:43;6.93;;;2.90;;
78561;SDS011;68963;52.138;5.446;2023-07-13T11:07:19;6.93;;;3.28;;
78561;SDS011;68963;52.138;5.446;2023-07-13T11:09:58;6.80;;;2.90;;
78561;SDS011;68963;52.138;5.446;2023-07-13T11:12:49;6.10;;;2.70;;
78561;SDS011;68963;52.138;5.446;2023-07-13T11:15:27;5.88;;;2.40;;
78561;SDS011;68963;52.138;5.446;2023-07-13T11:18:02;5.75;;;2.35;;
78561;SDS011;68963;52.138;5.446;2023-07-13T11:20:31;6.15;;;2.55;;
78561;SDS011;68963;52.138;5.446;2023-07-13T11:23:08;6.88;;;2.30;;
78561;SDS011;68963;52.138;5.446;2023-07-13T11:25:38;6.88;;;2.70;;
78561;SDS011;68963;52.138;5.446;2023-07-13T11:30:59;6.07;;;2.70;;
78561;SDS011;68963;52.138;5.446;2023-07-13T11:38:37;7.03;;;3.08;;
78561;SDS011;68963;52.138;5.446;2023-07-13T11:41:10;6.75;;;3.40;;
78561;SDS011;68963;52.138;5.446;2023-07-13T11:43:55;8.15;;;3.13;;
78561;SDS011;68963;52.138;5.446;2023-07-13T11:46:33;5.55;;;3.03;;
78561;SDS011;68963;52.138;5.446;2023-07-13T11:49:00;6.80;;;3.45;;
78561;SDS011;68963;52.138;5.446;2023-07-13T11:51:28;6.07;;;3.20;;
78561;SDS011;68963;52.138;5.446;2023-07-13T11:54:02;6.30;;;2.85;;
78561;SDS011;68963;52.138;5.446;2023-07-13T11:56:31;6.47;;;3.03;;
78561;SDS011;68963;52.138;5.446;2023-07-13T11:59:03;6.53;;;3.05;;
78561;SDS011;68963;52.138;5.446;2023-07-13T12:01:32;8.90;;;3.40;;
78561;SDS011;68963;52.138;5.446;2023-07-13T12:04:01;6.93;;;3.17;;
78561;SDS011;68963;52.138;5.446;2023-07-13T12:06:36;8.25;;;3.38;;
78561;SDS011;68963;52.138;5.446;2023-07-13T12:09:11;10.48;;;3.60;;
78561;SDS011;68963;52.138;5.446;2023-07-13T12:11:42;9.88;;;3.60;;
78561;SDS011;68963;52.138;5.446;2023-07-13T12:14:16;9.23;;;3.20;;
78561;SDS011;68963;52.138;5.446;2023-07-13T12:16:43;10.68;;;3.80;;
78561;SDS011;68963;52.138;5.446;2023-07-13T12:19:23;8.23;;;3.28;;
78561;SDS011;68963;52.138;5.446;2023-07-13T12:21:55;8.30;;;3.65;;
78561;SDS011;68963;52.138;5.446;2023-07-13T12:24:23;10.75;;;3.55;;
78561;SDS011;68963;52.138;5.446;2023-07-13T12:26:53;7.85;;;3.60;;
78561;SDS011;68963;52.138;5.446;2023-07-13T12:29:24;9.77;;;3.72;;
78561;SDS011;68963;52.138;5.446;2023-07-13T12:31:52;8.55;;;3.70;;
78561;SDS011;68963;52.138;5.446;2023-07-13T12:34:20;7.68;;;3.60;;
78561;SDS011;68963;52.138;5.446;2023-07-13T12:36:52;7.45;;;3.40;;
78561;SDS011;68963;52.138;5.446;2023-07-13T12:40:12;7.43;;;3.75;;
78561;SDS011;68963;52.138;5.446;2023-07-13T12:44:47;9.40;;;3.45;;
78561;SDS011;68963;52.138;5.446;2023-07-13T12:47:14;6.38;;;3.45;;
78561;SDS011;68963;52.138;5.446;2023-07-13T12:49:43;7.13;;;3.00;;
78561;SDS011;68963;52.138;5.446;2023-07-13T12:52:23;7.53;;;3.13;;
78561;SDS011;68963;52.138;5.446;2023-07-13T12:54:57;7.15;;;3.20;;
78561;SDS011;68963;52.138;5.446;2023-07-13T12:57:41;5.68;;;2.83;;
78561;SDS011;68963;52.138;5.446;2023-07-13T13:00:31;6.68;;;2.83;;
78561;SDS011;68963;52.138;5.446;2023-07-13T13:03:24;6.40;;;2.60;;
78561;SDS011;68963;52.138;5.446;2023-07-13T13:06:22;6.68;;;3.17;;
78561;SDS011;68963;52.138;5.446;2023-07-13T13:08:52;6.22;;;2.90;;
78561;SDS011;68963;52.138;5.446;2023-07-13T13:11:21;6.38;;;2.80;;
78561;SDS011;68963;52.138;5.446;2023-07-13T13:13:49;6.60;;;3.13;;
78561;SDS011;68963;52.138;5.446;2023-07-13T13:18:53;8.60;;;3.13;;
78561;SDS011;68963;52.138;5.446;2023-07-13T13:21:23;9.15;;;3.00;;
78561;SDS011;68963;52.138;5.446;2023-07-13T13:23:51;7.43;;;3.20;;
78561;SDS011;68963;52.138;5.446;2023-07-13T13:26:21;5.47;;;3.03;;
78561;SDS011;68963;52.138;5.446;2023-07-13T13:28:48;6.78;;;3.17;;
78561;SDS011;68963;52.138;5.446;2023-07-13T13:31:15;8.25;;;2.95;;
78561;SDS011;68963;52.138;5.446;2023-07-13T13:33:42;5.90;;;2.60;;
78561;SDS011;68963;52.138;5.446;2023-07-13T13:36:19;7.50;;;2.60;;
78561;SDS011;68963;52.138;5.446;2023-07-13T13:38:47;5.43;;;2.75;;
78561;SDS011;68963;52.138;5.446;2023-07-13T13:41:15;6.63;;;2.80;;
78561;SDS011;68963;52.138;5.446;2023-07-13T13:43:43;8.27;;;2.83;;
78561;SDS011;68963;52.138;5.446;2023-07-13T13:48:44;6.20;;;3.10;;
78561;SDS011;68963;52.138;5.446;2023-07-13T13:51:21;7.97;;;2.83;;
78561;SDS011;68963;52.138;5.446;2023-07-13T13:53:50;6.70;;;2.80;;
78561;SDS011;68963;52.138;5.446;2023-07-13T13:56:20;5.93;;;3.00;;
78561;SDS011;68963;52.138;5.446;2023-07-13T13:58:47;6.78;;;2.85;;
78561;SDS011;68963;52.138;5.446;2023-07-13T14:01:16;6.70;;;3.00;;
78561;SDS011;68963;52.138;5.446;2023-07-13T14:03:47;5.55;;;2.88;;
78561;SDS011;68963;52.138;5.446;2023-07-13T14:06:18;6.60;;;2.80;;
78561;SDS011;68963;52.138;5.446;2023-07-13T14:08:46;7.53;;;2.70;;
78561;SDS011;68963;52.138;5.446;2023-07-13T14:11:20;7.10;;;2.70;;
78561;SDS011;68963;52.138;5.446;2023-07-13T14:13:52;6.43;;;2.75;;
78561;SDS011;68963;52.138;5.446;2023-07-13T14:16:22;6.50;;;2.88;;
78561;SDS011;68963;52.138;5.446;2023-07-13T14:18:56;10.40;;;3.17;;
78561;SDS011;68963;52.138;5.446;2023-07-13T14:21:35;6.78;;;2.80;;
78561;SDS011;68963;52.138;5.446;2023-07-13T14:24:02;6.72;;;3.00;;
78561;SDS011;68963;52.138;5.446;2023-07-13T14:26:29;7.97;;;3.38;;
78561;SDS011;68963;52.138;5.446;2023-07-13T14:29:02;7.30;;;2.97;;
78561;SDS011;68963;52.138;5.446;2023-07-13T14:31:31;5.30;;;2.78;;
78561;SDS011;68963;52.138;5.446;2023-07-13T14:33:58;6.88;;;3.00;;
78561;SDS011;68963;52.138;5.446;2023-07-13T14:36:27;6.10;;;2.50;;
78561;SDS011;68963;52.138;5.446;2023-07-13T14:39:00;5.85;;;2.50;;
78561;SDS011;68963;52.138;5.446;2023-07-13T14:42:03;5.63;;;2.90;;
78561;SDS011;68963;52.138;5.446;2023-07-13T14:44:43;5.25;;;2.60;;
78561;SDS011;68963;52.138;5.446;2023-07-13T14:47:25;6.43;;;2.70;;
78561;SDS011;68963;52.138;5.446;2023-07-13T14:50:25;5.95;;;2.60;;
78561;SDS011;68963;52.138;5.446;2023-07-13T14:53:09;5.55;;;2.40;;
78561;SDS011;68963;52.138;5.446;2023-07-13T14:56:14;6.38;;;2.40;;
78561;SDS011;68963;52.138;5.446;2023-07-13T14:58:41;7.63;;;2.70;;
78561;SDS011;68963;52.138;5.446;2023-07-13T15:01:11;6.55;;;2.50;;
78561;SDS011;68963;52.138;5.446;2023-07-13T15:03:47;7.05;;;2.70;;
78561;SDS011;68963;52.138;5.446;2023-07-13T15:08:46;5.35;;;2.30;;
78561;SDS011;68963;52.138;5.446;2023-07-13T15:11:20;6.20;;;2.50;;
78561;SDS011;68963;52.138;5.446;2023-07-13T15:13:57;6.95;;;2.40;;
78561;SDS011;68963;52.138;5.446;2023-07-13T15:16:30;6.85;;;2.47;;
78561;SDS011;68963;52.138;5.446;2023-07-13T15:19:00;7.03;;;2.60;;
78561;SDS011;68963;52.138;5.446;2023-07-13T15:21:28;6.93;;;2.20;;
78561;SDS011;68963;52.138;5.446;2023-07-13T15:24:13;6.13;;;2.30;;
78561;SDS011;68963;52.138;5.446;2023-07-13T15:26:41;5.40;;;2.20;;
78561;SDS011;68963;52.138;5.446;2023-07-13T15:29:11;7.18;;;2.05;;
78561;SDS011;68963;52.138;5.446;2023-07-13T15:31:38;6.97;;;2.40;;
78561;SDS011;68963;52.138;5.446;2023-07-13T15:34:16;6.28;;;2.35;;
78561;SDS011;68963;52.138;5.446;2023-07-13T15:36:47;5.70;;;2.10;;
78561;SDS011;68963;52.138;5.446;2023-07-13T15:39:27;6.60;;;2.33;;
78561;SDS011;68963;52.138;5.446;2023-07-13T15:42:40;6.95;;;2.40;;
78561;SDS011;68963;52.138;5.446;2023-07-13T15:45:21;4.70;;;2.00;;
78561;SDS011;68963;52.138;5.446;2023-07-13T15:47:57;6.43;;;2.30;;
78561;SDS011;68963;52.138;5.446;2023-07-13T15:50:24;7.85;;;2.60;;
78561;SDS011;68963;52.138;5.446;2023-07-13T15:52:53;5.65;;;2.53;;
78561;SDS011;68963;52.138;5.446;2023-07-13T15:55:22;7.82;;;2.55;;
78561;SDS011;68963;52.138;5.446;2023-07-13T15:57:50;6.75;;;2.40;;
78561;SDS011;68963;52.138;5.446;2023-07-13T16:00:26;4.60;;;2.13;;
78561;SDS011;68963;52.138;5.446;2023-07-13T16:03:01;6.97;;;2.10;;
78561;SDS011;68963;52.138;5.446;2023-07-13T16:05:28;5.15;;;2.00;;
78561;SDS011;68963;52.138;5.446;2023-07-13T16:07:55;4.68;;;1.98;;
78561;SDS011;68963;52.138;5.446;2023-07-13T16:10:35;5.97;;;2.10;;